Time;durP1;ratioP1;P1;durP2;ratioP2;P2;SDS_P1;SDS_P2;PMS_P1;PMS_P2;Temp;Humidity;BMP_temperature;BMP_pressure;BME280_temperature;BME280_humidity;BME280_pressure;Samples;Min_cycle;Max_cycle;Signal;HPM_P1;HPM_P2
2023/06/10 04:01:07;;;;;;;3.33;3.13;;;16.40;97.30;;;;;;5685650;23;20507;-91
2023/06/10 04:03:33;;;;;;;6.47;2.77;;;16.40;97.30;;;;;;4952902;29;20545;-92
2023/06/10 04:05:58;;;;;;;6.90;3.20;;;16.40;97.30;;;;;;4954269;29;20505;-90
2023/06/10 04:08:24;;;;;;;5.90;3.77;;;16.40;97.30;;;;;;4953499;29;20427;-89
2023/06/10 04:10:49;;;;;;;5.80;2.77;;;16.50;97.30;;;;;;4951824;29;20258;-92
2023/06/10 04:13:19;;;;;;;2.57;2.37;;;16.50;97.30;;;;;;4951212;28;20183;-90
2023/06/10 04:15:45;;;;;;;5.80;4.00;;;16.50;97.30;;;;;;4978953;23;20238;-62
2023/06/10 04:18:10;;;;;;;2.70;2.33;;;16.50;97.30;;;;;;4957174;28;20429;-62
2023/06/10 04:20:36;;;;;;;4.07;3.70;;;16.50;97.30;;;;;;4958399;28;20237;-62
2023/06/10 04:23:02;;;;;;;7.80;4.20;;;16.50;97.30;;;;;;4972964;28;20190;-62
2023/06/10 04:25:28;;;;;;;4.60;2.50;;;16.50;97.30;;;;;;4972224;28;20549;-62
2023/06/10 04:27:54;;;;;;;5.70;3.17;;;16.50;97.30;;;;;;4972702;28;20273;-62
2023/06/10 04:30:20;;;;;;;3.47;2.70;;;16.50;97.30;;;;;;4972364;28;20509;-62
2023/06/10 04:32:46;;;;;;;5.17;3.57;;;16.50;97.30;;;;;;4972107;28;20182;-62
2023/06/10 04:35:13;;;;;;;3.77;3.20;;;16.50;97.30;;;;;;4972133;28;20297;-62
2023/06/10 04:37:39;;;;;;;2.83;2.63;;;16.50;97.30;;;;;;4966679;28;20477;-62
2023/06/10 04:40:06;;;;;;;3.70;3.13;;;16.50;97.30;;;;;;4971268;28;20456;-62
2023/06/10 04:42:31;;;;;;;2.90;2.27;;;16.50;97.30;;;;;;4968971;28;20438;-62
2023/06/10 04:44:57;;;;;;;8.20;5.00;;;16.40;97.30;;;;;;4971213;28;21218;-62
2023/06/10 04:47:23;;;;;;;4.33;3.30;;;16.50;97.30;;;;;;4972050;28;20174;-62
2023/06/10 04:49:48;;;;;;;3.20;3.00;;;16.50;97.30;;;;;;4967301;28;20662;-62
2023/06/10 04:52:14;;;;;;;5.73;3.30;;;16.50;97.30;;;;;;4966699;28;20268;-62
2023/06/10 04:54:40;;;;;;;3.60;3.40;;;16.50;97.30;;;;;;4971638;28;20217;-62
2023/06/10 04:57:07;;;;;;;31.33;4.20;;;16.50;97.30;;;;;;4972067;28;20259;-62
2023/06/10 04:59:37;;;;;;;5.53;3.03;;;16.50;97.30;;;;;;4986531;28;20182;-62
2023/06/10 05:02:03;;;;;;;6.13;3.13;;;16.50;97.30;;;;;;4978716;28;20438;-62
2023/06/10 05:04:29;;;;;;;4.30;2.80;;;16.50;97.30;;;;;;4970883;28;20431;-62
2023/06/10 05:06:55;;;;;;;4.17;3.80;;;16.50;97.30;;;;;;4968435;28;20427;-62
2023/06/10 05:09:20;;;;;;;7.37;3.57;;;16.60;97.30;;;;;;4966738;28;20429;-62
2023/06/10 05:11:46;;;;;;;7.20;3.40;;;16.60;97.30;;;;;;4971657;28;20687;-62
2023/06/10 05:14:12;;;;;;;11.30;3.77;;;16.50;97.30;;;;;;4971295;28;20262;-62
2023/06/10 05:16:38;;;;;;;14.50;5.00;;;16.60;97.30;;;;;;4963222;28;20570;-62
2023/06/10 05:19:04;;;;;;;2.80;2.57;;;16.60;97.30;;;;;;4981445;28;20523;-62
2023/06/10 05:21:30;;;;;;;2.47;2.27;;;16.60;97.30;;;;;;4968046;28;20249;-62
2023/06/10 05:23:55;;;;;;;3.00;2.30;;;16.60;97.30;;;;;;4969495;28;20426;-62
2023/06/10 05:26:21;;;;;;;4.23;3.93;;;16.60;97.30;;;;;;4967929;28;20197;-62
2023/06/10 05:28:47;;;;;;;4.60;3.40;;;16.60;97.30;;;;;;4972123;28;20825;-61
2023/06/10 05:31:13;;;;;;;3.93;3.63;;;16.60;97.30;;;;;;4971705;28;20214;-62
2023/06/10 05:33:39;;;;;;;7.77;5.03;;;16.60;97.30;;;;;;4970314;28;20777;-62
2023/06/10 05:36:05;;;;;;;6.70;3.70;;;16.60;97.30;;;;;;4982007;28;20265;-61
2023/06/10 05:38:30;;;;;;;4.93;3.77;;;16.60;97.30;;;;;;4968553;28;20418;-62
2023/06/10 05:40:56;;;;;;;36.30;5.90;;;16.60;97.30;;;;;;4971420;28;20497;-62
2023/06/10 05:43:22;;;;;;;2.30;2.10;;;16.60;97.30;;;;;;4971473;28;20186;-62
2023/06/10 05:45:48;;;;;;;5.20;2.93;;;16.70;97.30;;;;;;4969492;28;20434;-62
2023/06/10 05:48:13;;;;;;;3.70;3.50;;;16.70;97.30;;;;;;4986159;28;20186;-62
2023/06/10 05:50:42;;;;;;;4.10;3.47;;;16.80;97.30;;;;;;4969864;28;20730;-62
2023/06/10 05:53:14;;;;;;;9.33;4.47;;;16.80;97.30;;;;;;4966133;28;20189;-62
2023/06/10 05:55:43;;;;;;;20.40;3.50;;;16.80;97.30;;;;;;4967311;28;20556;-62
2023/06/10 05:58:12;;;;;;;13.33;5.10;;;16.90;97.30;;;;;;4983710;28;20449;-62
2023/06/10 06:00:38;;;;;;;26.27;4.43;;;16.90;97.30;;;;;;4984031;28;20442;-62
2023/06/10 06:03:03;;;;;;;7.50;3.80;;;16.90;97.30;;;;;;4979846;28;20439;-62
2023/06/10 06:05:34;;;;;;;5.37;4.37;;;17.00;97.30;;;;;;4966879;28;20418;-62
2023/06/10 06:08:01;;;;;;;6.43;4.50;;;17.00;97.30;;;;;;4963815;28;20186;-62
2023/06/10 06:10:27;;;;;;;6.00;4.50;;;17.00;97.30;;;;;;4970600;28;20437;-62
2023/06/10 06:12:52;;;;;;;6.10;3.17;;;17.10;97.30;;;;;;4970276;28;20855;-62
2023/06/10 06:15:18;;;;;;;15.27;4.13;;;17.10;97.30;;;;;;4970289;28;20221;-62
2023/06/10 06:17:43;;;;;;;3.63;3.10;;;17.20;97.30;;;;;;4968485;28;20186;-62
2023/06/10 06:20:12;;;;;;;2.93;2.73;;;17.20;97.30;;;;;;4970005;28;20185;-62
2023/06/10 06:22:38;;;;;;;3.87;2.33;;;17.30;97.30;;;;;;4970665;28;20179;-62
2023/06/10 06:25:04;;;;;;;4.10;3.10;;;17.30;97.30;;;;;;4968277;28;20456;-62
2023/06/10 06:27:30;;;;;;;17.87;4.50;;;17.40;97.30;;;;;;4967940;28;20560;-62
2023/06/10 06:29:56;;;;;;;4.43;3.50;;;17.40;97.30;;;;;;4969808;28;20505;-62
2023/06/10 06:32:22;;;;;;;8.83;3.00;;;17.40;97.30;;;;;;4969081;28;20549;-63
2023/06/10 06:34:53;;;;;;;3.00;2.73;;;17.50;97.30;;;;;;4967045;28;20289;-63
2023/06/10 06:37:21;;;;;;;8.47;3.70;;;17.50;97.30;;;;;;4964755;28;20418;-62
2023/06/10 06:39:46;;;;;;;4.00;3.57;;;17.60;97.30;;;;;;4969198;28;20741;-62
2023/06/10 06:42:12;;;;;;;3.67;3.17;;;17.70;97.30;;;;;;4970248;28;20453;-62
2023/06/10 06:44:37;;;;;;;5.43;3.43;;;17.70;97.30;;;;;;4970408;28;20186;-62
2023/06/10 06:47:03;;;;;;;7.17;5.60;;;17.80;97.30;;;;;;4970376;28;20187;-62
2023/06/10 06:49:28;;;;;;;3.40;2.97;;;17.80;97.30;;;;;;4968198;28;20186;-63
2023/06/10 06:51:54;;;;;;;6.23;3.47;;;17.80;97.30;;;;;;4969329;28;20209;-63
2023/06/10 06:54:20;;;;;;;3.40;2.90;;;17.80;97.30;;;;;;4968234;28;20195;-62
2023/06/10 06:56:45;;;;;;;5.93;4.57;;;17.90;97.30;;;;;;4969571;28;20202;-62
2023/06/10 06:59:13;;;;;;;4.07;3.70;;;17.90;97.30;;;;;;4968033;28;20194;-62
2023/06/10 07:01:39;;;;;;;3.10;2.80;;;18.00;97.30;;;;;;4969129;28;20225;-62
2023/06/10 07:04:05;;;;;;;5.17;3.17;;;18.10;97.30;;;;;;4976696;28;20520;-63
2023/06/10 07:06:30;;;;;;;7.83;4.03;;;18.10;97.30;;;;;;4969411;28;20208;-62
2023/06/10 07:08:56;;;;;;;11.17;5.73;;;18.20;97.30;;;;;;4968311;28;20189;-62
2023/06/10 07:11:21;;;;;;;3.90;3.23;;;18.30;97.30;;;;;;4969385;28;20210;-63
2023/06/10 07:13:47;;;;;;;7.20;3.90;;;18.40;97.30;;;;;;4967764;28;20194;-63
2023/06/10 07:16:13;;;;;;;7.90;5.97;;;18.50;97.30;;;;;;4968167;28;20250;-63
2023/06/10 07:18:38;;;;;;;6.70;4.30;;;18.50;97.30;;;;;;4983324;28;20281;-63
2023/06/10 07:21:04;;;;;;;5.20;3.53;;;18.60;97.30;;;;;;4969460;28;20206;-63
2023/06/10 07:23:29;;;;;;;4.60;4.07;;;18.70;97.30;;;;;;4969116;28;20199;-63
2023/06/10 07:25:55;;;;;;;18.17;4.40;;;18.80;97.30;;;;;;4968246;28;20720;-63
2023/06/10 07:28:21;;;;;;;7.30;4.23;;;18.90;97.30;;;;;;4967818;28;20504;-63
2023/06/10 07:30:46;;;;;;;5.03;3.90;;;18.90;97.30;;;;;;4969136;28;20579;-63
2023/06/10 07:33:12;;;;;;;4.90;3.73;;;19.00;97.30;;;;;;4969469;28;20266;-62
2023/06/10 07:35:37;;;;;;;9.00;3.87;;;19.10;97.30;;;;;;4968597;28;20221;-63
2023/06/10 07:38:03;;;;;;;3.60;3.43;;;19.10;97.30;;;;;;4969481;28;20178;-63
2023/06/10 07:40:28;;;;;;;7.13;3.93;;;19.20;97.30;;;;;;4969451;28;20209;-63
2023/06/10 07:42:55;;;;;;;4.70;3.33;;;19.20;97.30;;;;;;4967563;28;20686;-63
2023/06/10 07:45:20;;;;;;;9.93;4.87;;;19.30;97.30;;;;;;4969471;28;20186;-63
2023/06/10 07:47:46;;;;;;;5.23;2.90;;;19.30;97.30;;;;;;4970844;28;20414;-63
2023/06/10 07:50:12;;;;;;;4.27;3.20;;;19.40;97.30;;;;;;4973206;28;20189;-63
2023/06/10 07:52:37;;;;;;;8.93;3.40;;;19.50;97.30;;;;;;4988254;28;20654;-63
2023/06/10 07:55:04;;;;;;;7.70;4.43;;;19.60;97.30;;;;;;4973463;28;20426;-63
2023/06/10 07:57:31;;;;;;;3.23;2.60;;;19.60;97.30;;;;;;4971246;28;20660;-63
2023/06/10 07:59:59;;;;;;;9.73;4.37;;;19.70;97.30;;;;;;4971711;28;21932;-63
2023/06/10 08:02:25;;;;;;;7.50;5.40;;;19.80;97.30;;;;;;4988169;28;20437;-63
2023/06/10 08:04:50;;;;;;;5.43;3.47;;;19.80;97.30;;;;;;4973623;28;20464;-62
2023/06/10 08:07:17;;;;;;;10.37;3.90;;;19.90;97.30;;;;;;4972411;28;20542;-63
2023/06/10 08:09:43;;;;;;;5.70;4.20;;;20.00;97.30;;;;;;4973051;28;20178;-63
2023/06/10 08:12:09;;;;;;;7.83;5.30;;;20.10;97.30;;;;;;4983313;28;21056;-63
2023/06/10 08:14:34;;;;;;;5.37;4.20;;;20.20;97.30;;;;;;4969460;28;20697;-63
2023/06/10 08:17:00;;;;;;;4.50;3.93;;;20.30;97.30;;;;;;4972604;28;20603;-63
2023/06/10 08:19:25;;;;;;;16.63;4.63;;;20.40;97.30;;;;;;4972816;28;20659;-63
2023/06/10 08:21:51;;;;;;;6.80;3.17;;;20.50;97.30;;;;;;4978974;28;20202;-63
2023/06/10 08:24:18;;;;;;;4.77;4.20;;;20.60;97.30;;;;;;4967186;28;20182;-63
2023/06/10 08:26:44;;;;;;;4.43;3.50;;;20.60;97.30;;;;;;4969480;28;20206;-64
2023/06/10 08:29:12;;;;;;;5.73;3.50;;;20.70;97.30;;;;;;4972738;28;20452;-63
2023/06/10 08:31:37;;;;;;;3.77;3.20;;;20.80;97.30;;;;;;4970201;28;20260;-63
2023/06/10 08:34:03;;;;;;;5.27;3.20;;;20.90;97.30;;;;;;4976014;28;20460;-65
2023/06/10 08:36:28;;;;;;;4.50;3.93;;;21.00;97.30;;;;;;4985794;28;20213;-65
2023/06/10 08:38:54;;;;;;;4.07;3.43;;;21.10;97.30;;;;;;4971918;28;20171;-65
2023/06/10 08:41:23;;;;;;;7.50;5.03;;;21.20;97.30;;;;;;4971334;28;20198;-64
2023/06/10 08:44:06;;;;;;;11.40;4.53;;;21.30;97.30;;;;;;4985919;28;20226;-65
2023/06/10 08:46:33;;;;;;;10.20;4.40;;;21.40;97.30;;;;;;4980417;28;20577;-65
2023/06/10 08:49:02;;;;;;;7.93;3.73;;;21.50;97.30;;;;;;4971853;28;20964;-64
2023/06/10 08:51:31;;;;;;;7.10;3.60;;;21.50;97.30;;;;;;4971889;28;20466;-64
2023/06/10 08:54:20;;;;;;;4.10;2.97;;;21.60;97.30;;;;;;4985051;28;20432;-64
2023/06/10 08:56:49;;;;;;;3.10;2.90;;;21.70;97.30;;;;;;4972114;28;20429;-65
2023/06/10 08:59:18;;;;;;;4.80;3.23;;;21.80;97.30;;;;;;4972190;28;20418;-64
2023/06/10 09:01:45;;;;;;;6.33;3.57;;;22.00;97.00;;;;;;4970925;28;20545;-65
2023/06/10 09:04:11;;;;;;;5.63;5.37;;;22.10;96.90;;;;;;4972219;28;20418;-64
2023/06/10 09:06:38;;;;;;;12.23;3.97;;;22.10;96.60;;;;;;4987589;28;20426;-64
2023/06/10 09:09:06;;;;;;;5.97;3.73;;;22.20;96.10;;;;;;4972107;28;20418;-64
2023/06/10 09:11:32;;;;;;;8.17;4.23;;;22.20;96.00;;;;;;4972002;28;20442;-64
2023/06/10 09:13:57;;;;;;;5.17;3.40;;;22.30;95.60;;;;;;4971241;28;22177;-65
2023/06/10 09:16:26;;;;;;;4.40;4.07;;;22.40;95.70;;;;;;4971592;28;21013;-64
2023/06/10 09:18:54;;;;;;;8.80;3.53;;;22.40;95.80;;;;;;4970987;28;20194;-64
2023/06/10 09:21:23;;;;;;;5.53;3.23;;;22.50;95.70;;;;;;4970819;28;20601;-65
2023/06/10 09:23:50;;;;;;;9.50;3.50;;;22.60;95.60;;;;;;4968410;28;20671;-64
2023/06/10 09:26:15;;;;;;;10.50;3.80;;;22.70;95.50;;;;;;4965458;28;21029;-65
2023/06/10 09:29:05;;;;;;;6.50;3.80;;;22.80;95.20;;;;;;4970087;28;20857;-65
2023/06/10 09:31:34;;;;;;;5.27;3.90;;;22.90;94.80;;;;;;4965900;28;20210;-65
2023/06/10 09:34:13;;;;;;;9.53;3.67;;;23.00;93.90;;;;;;4971415;28;20891;-65
2023/06/10 09:36:40;;;;;;;6.03;3.03;;;23.10;93.80;;;;;;4969375;28;20469;-62
2023/06/10 09:39:15;;;;;;;8.00;5.57;;;23.20;93.90;;;;;;4963126;28;20859;-63
2023/06/10 09:41:41;;;;;;;6.77;4.30;;;23.30;93.90;;;;;;4969246;28;20449;-63
2023/06/10 09:44:18;;;;;;;7.20;4.13;;;23.40;93.40;;;;;;4977485;28;20422;-63
2023/06/10 09:46:50;;;;;;;4.23;3.03;;;23.50;93.10;;;;;;4970947;28;20964;-64
2023/06/10 09:49:19;;;;;;;7.13;3.53;;;23.60;92.60;;;;;;4971010;28;20432;-64
2023/06/10 09:51:52;;;;;;;6.50;4.40;;;23.70;92.70;;;;;;4969214;28;20514;-64
2023/06/10 09:54:18;;;;;;;8.77;4.53;;;23.80;93.00;;;;;;4969472;28;20426;-64
2023/06/10 09:56:47;;;;;;;3.57;3.20;;;23.90;92.20;;;;;;4970954;28;20426;-65
2023/06/10 09:59:13;;;;;;;4.40;4.13;;;23.90;92.50;;;;;;4969854;28;20422;-65
2023/06/10 10:01:38;;;;;;;5.90;4.63;;;24.10;92.40;;;;;;4969843;28;20452;-64
2023/06/10 10:04:04;;;;;;;9.37;4.57;;;24.20;91.90;;;;;;4969091;28;20201;-65
2023/06/10 10:06:30;;;;;;;6.90;4.30;;;24.20;91.00;;;;;;4986232;28;20222;-64
2023/06/10 10:08:55;;;;;;;5.23;3.77;;;24.20;91.20;;;;;;4977810;28;20689;-65
2023/06/10 10:11:22;;;;;;;4.83;3.00;;;24.30;91.30;;;;;;4980373;28;20446;-65
2023/06/10 10:13:50;;;;;;;7.30;4.80;;;24.50;91.70;;;;;;4969814;28;20183;-65
2023/06/10 10:16:22;;;;;;;11.53;3.80;;;24.60;91.80;;;;;;4974531;23;20603;-88
2023/06/10 10:19:05;;;;;;;9.57;4.93;;;24.80;91.30;;;;;;4944882;29;20534;-89
2023/06/10 10:21:36;;;;;;;5.80;4.07;;;24.90;90.80;;;;;;4942145;28;20807;-89
2023/06/10 10:24:04;;;;;;;4.20;3.93;;;25.10;90.60;;;;;;4932666;29;20418;-88
2023/06/10 10:26:31;;;;;;;3.17;2.97;;;25.20;90.40;;;;;;4939829;29;21033;-91
2023/06/10 10:31:28;;;;;;;4.43;3.83;;;25.30;89.40;;;;;;4941343;29;20486;-67
2023/06/10 10:33:59;;;;;;;9.07;4.80;;;25.30;89.60;;;;;;4947452;28;20939;-67
2023/06/10 10:36:25;;;;;;;5.17;4.00;;;25.40;89.40;;;;;;4950678;28;20813;-67
2023/06/10 10:38:52;;;;;;;3.80;2.93;;;25.50;90.00;;;;;;4949096;29;20432;-67
2023/06/10 10:41:19;;;;;;;6.80;3.77;;;25.60;90.10;;;;;;4949093;29;20972;-66
2023/06/10 10:43:46;;;;;;;15.70;4.93;;;25.70;89.60;;;;;;4950246;28;20415;-67
2023/06/10 10:46:13;;;;;;;7.53;4.70;;;25.80;87.90;;;;;;4950094;28;20434;-67
2023/06/10 10:48:43;;;;;;;6.13;4.90;;;25.90;88.50;;;;;;4949456;29;20601;-68
2023/06/10 10:51:09;;;;;;;5.17;3.70;;;26.00;87.70;;;;;;4944314;28;20485;-68
2023/06/10 10:53:38;;;;;;;5.60;5.13;;;26.00;87.80;;;;;;4947480;29;20445;-68
2023/06/10 10:56:12;;;;;;;3.87;3.70;;;26.10;88.00;;;;;;4949190;28;20459;-66
2023/06/10 10:58:38;;;;;;;5.23;4.17;;;26.20;86.30;;;;;;4947980;29;20465;-67
2023/06/10 11:01:17;;;;;;;5.33;3.73;;;26.10;86.50;;;;;;4949299;28;20493;-69
2023/06/10 11:03:45;;;;;;;8.13;4.97;;;26.20;87.50;;;;;;4949030;29;20427;-67
2023/06/10 11:06:15;;;;;;;5.83;3.97;;;26.30;88.30;;;;;;4950995;28;20403;-67
2023/06/10 11:08:41;;;;;;;7.20;4.43;;;26.30;86.40;;;;;;4948361;29;20457;-67
2023/06/10 11:11:25;;;;;;;3.53;3.20;;;26.40;87.10;;;;;;4949415;29;20942;-67
2023/06/10 11:14:06;;;;;;;3.60;3.40;;;26.50;87.40;;;;;;4950092;28;20191;-67
2023/06/10 11:16:39;;;;;;;7.33;4.57;;;26.60;87.10;;;;;;4949950;28;20809;-67
2023/06/10 11:19:04;;;;;;;5.20;4.10;;;26.70;85.90;;;;;;4948736;29;20508;-67
2023/06/10 11:21:30;;;;;;;3.93;2.80;;;26.80;85.00;;;;;;4948344;29;20446;-67
2023/06/10 11:23:58;;;;;;;4.43;4.17;;;26.80;84.80;;;;;;4948675;28;20179;-67
2023/06/10 11:26:31;;;;;;;8.10;4.07;;;26.90;84.70;;;;;;4943655;29;20285;-68
2023/06/10 11:28:56;;;;;;;5.17;4.57;;;27.00;85.60;;;;;;4948927;29;20828;-67
2023/06/10 11:31:29;;;;;;;5.53;3.70;;;27.10;84.10;;;;;;4946298;29;20529;-67
2023/06/10 11:33:57;;;;;;;6.40;3.93;;;27.20;83.90;;;;;;4948592;29;20186;-67
2023/06/10 11:36:23;;;;;;;5.27;3.37;;;27.30;84.20;;;;;;4949898;28;20985;-66
2023/06/10 11:38:53;;;;;;;4.23;3.70;;;27.40;83.70;;;;;;4949020;28;20426;-66
2023/06/10 11:41:18;;;;;;;3.40;3.03;;;27.40;83.40;;;;;;4950233;28;20453;-65
2023/06/10 11:43:45;;;;;;;4.90;3.03;;;27.40;82.00;;;;;;4947812;29;20430;-66
2023/06/10 11:46:14;;;;;;;7.80;3.80;;;27.20;81.70;;;;;;4942290;29;20555;-66
2023/06/10 11:48:48;;;;;;;4.67;3.47;;;27.10;82.20;;;;;;4948993;28;20426;-66
2023/06/10 11:51:14;;;;;;;4.10;3.70;;;26.90;83.00;;;;;;4944288;29;20450;-66
2023/06/10 11:53:39;;;;;;;4.80;3.60;;;26.90;83.80;;;;;;4949652;28;20945;-66
2023/06/10 11:56:05;;;;;;;3.00;2.43;;;26.80;82.00;;;;;;4948557;29;20714;-66
2023/06/10 11:58:30;;;;;;;10.53;3.97;;;26.70;82.20;;;;;;4949765;28;20202;-66
2023/06/10 12:00:57;;;;;;;5.77;3.73;;;26.80;83.90;;;;;;4948927;29;20210;-65
2023/06/10 12:03:23;;;;;;;12.90;4.30;;;27.00;82.50;;;;;;4947740;29;20706;-64
2023/06/10 12:06:06;;;;;;;3.90;3.43;;;27.10;81.80;;;;;;4949426;29;20439;-66
2023/06/10 12:08:33;;;;;;;4.63;4.00;;;27.40;83.80;;;;;;4946271;28;20522;-66
2023/06/10 12:10:58;;;;;;;5.57;3.20;;;27.60;82.80;;;;;;4946389;29;20565;-65
2023/06/10 12:13:28;;;;;;;2.60;2.33;;;27.80;82.80;;;;;;4947440;28;20921;-65
2023/06/10 12:15:53;;;;;;;3.93;2.67;;;27.90;81.30;;;;;;4948959;28;20290;-65
2023/06/10 12:18:23;;;;;;;3.90;3.70;;;27.90;80.10;;;;;;4946791;28;20899;-65
2023/06/10 12:20:50;;;;;;;4.33;3.40;;;27.90;80.60;;;;;;4947726;29;20672;-66
2023/06/10 12:23:16;;;;;;;3.53;3.40;;;28.00;81.90;;;;;;4942034;28;20931;-63
2023/06/10 12:25:53;;;;;;;6.70;3.47;;;28.20;77.80;;;;;;4948683;28;20435;-65
2023/06/10 12:28:26;;;;;;;3.60;2.87;;;28.10;77.90;;;;;;4948033;29;20574;-64
2023/06/10 12:31:05;;;;;;;40.93;3.23;;;28.00;77.50;;;;;;4941104;28;20978;-66
2023/06/10 12:33:31;;;;;;;7.27;3.00;;;27.70;77.80;;;;;;4949731;28;20426;-66
2023/06/10 12:35:56;;;;;;;6.30;2.93;;;27.20;79.20;;;;;;4952519;29;20597;-64
2023/06/10 12:38:32;;;;;;;3.10;2.63;;;26.80;80.20;;;;;;4953283;28;20183;-65
2023/06/10 12:41:03;;;;;;;8.63;3.30;;;26.40;80.20;;;;;;4953238;28;20969;-64
2023/06/10 12:43:31;;;;;;;5.83;3.03;;;26.10;80.00;;;;;;4952618;28;20434;-63
2023/06/10 12:46:09;;;;;;;2.83;2.63;;;25.90;80.30;;;;;;4950814;29;20542;-65
2023/06/10 12:48:35;;;;;;;3.60;2.60;;;25.70;80.00;;;;;;4951574;29;20434;-66
2023/06/10 12:51:01;;;;;;;5.20;2.90;;;25.70;80.90;;;;;;4950578;29;20453;-65
2023/06/10 12:53:26;;;;;;;18.87;4.03;;;25.60;81.20;;;;;;4952679;28;20434;-65
2023/06/10 12:55:52;;;;;;;3.10;2.90;;;25.50;80.80;;;;;;4952234;28;20218;-65
2023/06/10 12:58:19;;;;;;;9.80;4.40;;;25.50;80.90;;;;;;4945381;28;20190;-65
2023/06/10 13:00:45;;;;;;;3.30;2.73;;;25.40;81.20;;;;;;4952405;28;20489;-64
2023/06/10 13:03:11;;;;;;;3.37;2.33;;;25.40;81.30;;;;;;4952640;28;20919;-67
2023/06/10 13:05:38;;;;;;;2.80;2.60;;;25.40;81.80;;;;;;4953096;28;20631;-66
2023/06/10 13:08:05;;;;;;;4.90;3.40;;;25.40;82.00;;;;;;4950496;28;20267;-67
2023/06/10 13:10:30;;;;;;;5.40;3.23;;;25.40;82.00;;;;;;4945043;29;20835;-66
2023/06/10 13:12:56;;;;;;;4.53;3.30;;;25.30;82.70;;;;;;4945777;29;20430;-67
2023/06/10 13:15:22;;;;;;;3.80;2.80;;;25.30;83.10;;;;;;4952497;28;20207;-67
2023/06/10 13:17:50;;;;;;;3.97;3.00;;;25.20;83.40;;;;;;4952729;28;20194;-66
2023/06/10 13:20:18;;;;;;;2.80;2.50;;;25.20;83.40;;;;;;4951780;29;20183;-66
2023/06/10 13:22:43;;;;;;;8.23;3.70;;;25.20;83.70;;;;;;4952038;29;20431;-66
2023/06/10 13:25:09;;;;;;;2.93;2.23;;;25.20;84.30;;;;;;4945359;28;20811;-67
2023/06/10 13:27:38;;;;;;;3.40;3.03;;;25.20;84.80;;;;;;4940421;29;20659;-69
2023/06/10 13:30:08;;;;;;;5.53;3.20;;;25.20;84.20;;;;;;4945811;29;20293;-68
2023/06/10 13:32:34;;;;;;;6.87;3.77;;;25.40;86.20;;;;;;4941605;29;20450;-70
2023/06/10 13:35:00;;;;;;;3.03;2.60;;;25.70;85.00;;;;;;4943743;28;20489;-66
2023/06/10 13:37:26;;;;;;;2.83;1.90;;;25.90;83.30;;;;;;4944029;29;20820;-67
2023/06/10 13:39:51;;;;;;;3.27;2.70;;;26.00;82.50;;;;;;4948365;29;20187;-68
2023/06/10 13:42:20;;;;;;;2.70;2.33;;;25.90;82.50;;;;;;4949848;28;20202;-69
2023/06/10 13:44:47;;;;;;;7.10;2.60;;;25.90;82.00;;;;;;4942641;28;20194;-67
2023/06/10 13:47:13;;;;;;;7.73;3.73;;;25.80;82.40;;;;;;4951007;28;20427;-69
2023/06/10 13:49:39;;;;;;;2.73;2.47;;;25.70;82.60;;;;;;4952192;28;20415;-69
2023/06/10 13:52:05;;;;;;;4.40;2.47;;;25.60;81.60;;;;;;4949425;29;20509;-69
2023/06/10 13:54:31;;;;;;;3.57;2.50;;;25.60;82.00;;;;;;4950399;29;20770;-70
2023/06/10 13:56:56;;;;;;;2.53;2.40;;;25.60;80.90;;;;;;4949343;28;20469;-70
2023/06/10 13:59:22;;;;;;;3.57;3.10;;;25.60;79.90;;;;;;4949722;29;20183;-70
2023/06/10 14:01:48;;;;;;;2.83;1.80;;;25.50;79.40;;;;;;4942977;29;20203;-70
2023/06/10 14:04:13;;;;;;;1.60;1.50;;;25.40;78.70;;;;;;4950185;29;20250;-67
2023/06/10 14:06:39;;;;;;;5.23;2.20;;;25.30;78.10;;;;;;4950670;28;20658;-71
2023/06/10 14:09:04;;;;;;;13.10;2.30;;;25.20;79.70;;;;;;4950775;29;20357;-68
2023/06/10 14:11:31;;;;;;;1.97;1.33;;;25.10;78.60;;;;;;4950003;29;20302;-69
2023/06/10 14:13:57;;;;;;;2.30;2.07;;;25.10;78.90;;;;;;4949982;29;20655;-67
2023/06/10 14:16:23;;;;;;;2.20;1.90;;;25.10;79.20;;;;;;4950725;28;20490;-68
2023/06/10 14:18:50;;;;;;;3.43;2.27;;;25.10;79.50;;;;;;4951105;28;20517;-68
2023/06/10 14:21:16;;;;;;;2.30;2.10;;;25.10;79.90;;;;;;4949231;28;20463;-68
2023/06/10 14:23:43;;;;;;;3.73;2.80;;;25.10;79.80;;;;;;4949419;28;20431;-69
2023/06/10 14:26:08;;;;;;;1.70;1.60;;;25.10;79.40;;;;;;4949107;29;20187;-68
2023/06/10 14:28:34;;;;;;;4.30;2.50;;;25.10;80.10;;;;;;4950759;28;20427;-68
2023/06/10 14:30:59;;;;;;;15.07;3.30;;;25.10;79.90;;;;;;4951152;28;20235;-68
2023/06/10 14:33:25;;;;;;;1.30;1.20;;;25.20;80.00;;;;;;4949798;28;20187;-68
2023/06/10 14:35:50;;;;;;;3.07;1.83;;;25.20;80.10;;;;;;4946210;28;20242;-68
2023/06/10 14:38:16;;;;;;;9.07;2.80;;;25.20;80.30;;;;;;4950676;29;20191;-67
2023/06/10 14:40:41;;;;;;;5.30;2.10;;;25.20;79.50;;;;;;4948417;29;20618;-67
2023/06/10 14:43:10;;;;;;;3.70;2.50;;;25.20;81.40;;;;;;4948886;29;20180;-66
2023/06/10 14:45:41;;;;;;;5.20;2.40;;;25.20;81.50;;;;;;4948864;29;20179;-67
2023/06/10 14:48:07;;;;;;;6.90;3.00;;;25.00;82.70;;;;;;4950317;28;20411;-66
2023/06/10 14:50:35;;;;;;;4.10;2.40;;;24.90;83.40;;;;;;4947062;29;20454;-67
2023/06/10 14:53:00;;;;;;;7.00;3.40;;;24.80;83.70;;;;;;4950103;29;20187;-66
2023/06/10 14:55:26;;;;;;;6.90;3.37;;;24.70;83.60;;;;;;4948510;28;20466;-66
2023/06/10 14:57:52;;;;;;;4.10;2.80;;;24.70;83.70;;;;;;4948550;28;20199;-65
2023/06/10 15:00:22;;;;;;;3.33;3.13;;;24.70;84.00;;;;;;4949201;29;20175;-66
2023/06/10 15:02:47;;;;;;;4.10;2.67;;;24.70;83.80;;;;;;4948996;28;20642;-66
2023/06/10 15:05:17;;;;;;;2.90;2.57;;;24.70;84.60;;;;;;4949122;29;20454;-65
2023/06/10 15:07:43;;;;;;;12.33;4.30;;;24.70;85.20;;;;;;4950227;28;20250;-65
2023/06/10 15:10:09;;;;;;;8.43;4.60;;;24.80;85.60;;;;;;4950405;28;20460;-66
2023/06/10 15:12:35;;;;;;;3.53;2.90;;;24.80;86.10;;;;;;4948945;29;20430;-67
2023/06/10 15:15:02;;;;;;;4.30;3.03;;;25.00;86.50;;;;;;4948954;29;20462;-67
2023/06/10 15:17:27;;;;;;;3.13;2.40;;;25.20;85.90;;;;;;4948474;29;20262;-67
2023/06/10 15:19:53;;;;;;;4.10;3.27;;;25.40;85.80;;;;;;4950479;29;20526;-66
2023/06/10 15:22:18;;;;;;;2.93;2.73;;;25.70;84.00;;;;;;4948266;28;20675;-67
2023/06/10 15:24:44;;;;;;;6.93;3.17;;;26.00;84.60;;;;;;4948416;29;20266;-67
2023/06/10 15:27:09;;;;;;;5.17;3.80;;;26.30;84.60;;;;;;4947588;29;20183;-66
2023/06/10 15:29:35;;;;;;;6.77;4.30;;;26.50;84.00;;;;;;4947967;29;20222;-67
2023/06/10 15:32:00;;;;;;;4.70;3.77;;;26.70;84.30;;;;;;4948332;29;20441;-67
2023/06/10 15:34:26;;;;;;;9.60;4.33;;;26.80;84.00;;;;;;4947173;28;20179;-66
2023/06/10 15:36:51;;;;;;;5.40;3.27;;;26.90;85.00;;;;;;4946094;29;20211;-67
2023/06/10 15:39:18;;;;;;;5.27;3.83;;;27.00;84.30;;;;;;4946103;28;20640;-65
2023/06/10 15:41:44;;;;;;;3.70;3.40;;;27.20;84.70;;;;;;4948897;29;20721;-66
2023/06/10 15:44:09;;;;;;;9.93;4.67;;;27.20;84.70;;;;;;4948034;29;20442;-66
2023/06/10 15:46:35;;;;;;;8.63;3.60;;;27.30;83.10;;;;;;4948252;28;20198;-66
2023/06/10 15:49:01;;;;;;;3.07;2.87;;;27.30;82.90;;;;;;4948218;28;20286;-66
2023/06/10 15:51:26;;;;;;;3.20;2.80;;;27.40;82.60;;;;;;4949442;28;20216;-67
2023/06/10 15:53:52;;;;;;;6.60;4.33;;;27.50;82.20;;;;;;4950581;28;20187;-66
2023/06/10 15:56:17;;;;;;;4.03;2.93;;;27.70;83.00;;;;;;4950116;29;20211;-65
2023/06/10 15:58:43;;;;;;;4.33;4.07;;;27.80;82.30;;;;;;4948695;29;20203;-65
2023/06/10 16:01:09;;;;;;;4.47;3.00;;;28.00;80.90;;;;;;4948659;28;20199;-64
2023/06/10 16:03:35;;;;;;;6.27;4.17;;;28.20;80.50;;;;;;4943846;29;20230;-64
2023/06/10 16:06:01;;;;;;;5.27;3.47;;;28.20;80.10;;;;;;4947302;28;20183;-64
2023/06/10 16:08:26;;;;;;;10.60;4.43;;;28.30;80.20;;;;;;4947586;28;20940;-64
2023/06/10 16:10:52;;;;;;;5.60;4.50;;;28.30;80.00;;;;;;4952218;29;20486;-65
2023/06/10 16:13:18;;;;;;;14.70;4.53;;;28.30;79.10;;;;;;4948354;29;20221;-64
2023/06/10 16:15:43;;;;;;;5.73;3.80;;;28.10;79.80;;;;;;4953198;28;20211;-64
2023/06/10 16:18:13;;;;;;;3.73;3.50;;;28.00;80.20;;;;;;4955739;23;20242;-85
2023/06/10 16:20:39;;;;;;;3.77;3.30;;;27.70;80.60;;;;;;4944071;29;20187;-84
2023/06/10 16:23:05;;;;;;;4.30;3.03;;;27.40;81.40;;;;;;4943425;28;20960;-84
2023/06/10 16:25:31;;;;;;;5.53;3.30;;;27.20;81.70;;;;;;4937333;29;20180;-84
2023/06/10 16:27:57;;;;;;;5.93;2.80;;;27.10;82.20;;;;;;4929983;29;20207;-83
2023/06/10 16:30:22;;;;;;;3.80;2.63;;;27.10;83.20;;;;;;4955043;23;20498;-64
2023/06/10 16:32:48;;;;;;;3.77;3.47;;;27.20;83.70;;;;;;4929644;29;20215;-64
2023/06/10 16:35:13;;;;;;;5.77;3.67;;;27.40;84.00;;;;;;4936185;29;20215;-64
2023/06/10 16:37:39;;;;;;;7.70;3.83;;;27.60;85.70;;;;;;4928705;29;20185;-63
2023/06/10 16:40:05;;;;;;;3.90;3.17;;;27.70;84.20;;;;;;4938750;29;20282;-64
2023/06/10 16:42:31;;;;;;;4.13;3.50;;;27.70;83.70;;;;;;4933633;28;20417;-64
2023/06/10 16:44:57;;;;;;;4.17;2.77;;;27.60;83.30;;;;;;4940167;29;20874;-64
2023/06/10 16:47:22;;;;;;;8.17;4.37;;;27.50;82.20;;;;;;4939061;29;20744;-64